createdAt,value
2018-08-13T00:09:13.809Z,3.70
2018-08-13T00:11:43.021Z,4.00
2018-08-13T00:14:12.299Z,4.03
2018-08-13T00:16:41.491Z,4.03
2018-08-13T00:19:12.883Z,3.95
2018-08-13T00:21:43.861Z,4.20
2018-08-13T00:24:15.677Z,4.30
2018-08-13T00:26:45.023Z,3.70
2018-08-13T00:29:16.571Z,3.77
2018-08-13T00:31:46.171Z,3.67
2018-08-13T00:34:19.021Z,3.60
2018-08-13T00:36:50.833Z,3.47
2018-08-13T00:39:20.086Z,3.60
2018-08-13T00:41:52.828Z,3.55
2018-08-13T00:44:22.063Z,3.40
2018-08-13T00:46:51.290Z,3.53
2018-08-13T00:49:23.021Z,3.67
2018-08-13T00:51:52.213Z,3.23
2018-08-13T00:54:23.175Z,3.40
2018-08-13T00:56:54.369Z,3.57
2018-08-13T00:59:25.757Z,3.80
2018-08-13T01:01:56.666Z,3.57
2018-08-13T01:04:25.869Z,3.90
2018-08-13T01:06:56.802Z,4.10
2018-08-13T01:09:27.649Z,4.40
2018-08-13T01:11:56.855Z,3.80
2018-08-13T01:14:28.584Z,3.80
2018-08-13T01:17:02.601Z,4.03
2018-08-13T01:19:31.808Z,4.30
2018-08-13T01:22:02.032Z,4.00
2018-08-13T01:24:33.167Z,4.00
2018-08-13T01:27:02.424Z,3.60
2018-08-13T01:29:31.668Z,3.67
2018-08-13T01:32:03.194Z,3.50
2018-08-13T01:34:36.014Z,3.17
2018-08-13T01:37:13.735Z,3.60
2018-08-13T01:39:45.600Z,3.43
2018-08-13T01:42:15.206Z,3.40
2018-08-13T01:44:46.401Z,4.17
2018-08-13T01:47:15.732Z,3.70
2018-08-13T01:49:47.497Z,3.80
2018-08-13T01:52:19.389Z,4.00
2018-08-13T01:54:50.601Z,3.97
2018-08-13T01:57:25.353Z,3.90
2018-08-13T01:59:54.779Z,4.27
2018-08-13T02:02:33.385Z,4.00
2018-08-13T02:05:02.809Z,3.60
2018-08-13T02:07:32.085Z,4.00
2018-08-13T02:10:06.165Z,3.90
2018-08-13T02:12:37.731Z,3.50
2018-08-13T02:15:07.239Z,3.40
2018-08-13T02:17:36.477Z,3.67
2018-08-13T02:20:07.493Z,3.83
2018-08-13T02:22:36.820Z,4.10
2018-08-13T02:25:09.571Z,3.87
2018-08-13T02:27:39.539Z,4.20
2018-08-13T02:30:10.840Z,4.33
2018-08-13T02:32:40.369Z,3.60
2018-08-13T02:35:09.956Z,3.75
2018-08-13T02:37:42.453Z,4.00
2018-08-13T02:40:14.780Z,4.27
2018-08-13T02:42:51.232Z,4.20
2018-08-13T02:45:20.426Z,4.10
2018-08-13T02:47:50.060Z,4.22
2018-08-13T02:50:19.279Z,4.03
2018-08-13T02:52:48.881Z,3.90
2018-08-13T02:55:18.100Z,4.07
2018-08-13T02:57:47.680Z,4.57
2018-08-13T03:00:22.755Z,4.50
2018-08-13T03:02:55.340Z,4.00
2018-08-13T03:05:26.614Z,4.77
2018-08-13T03:07:55.827Z,4.33
2018-08-13T03:10:25.068Z,4.60
2018-08-13T03:12:56.541Z,4.40
2018-08-13T03:15:25.955Z,4.90
2018-08-13T03:17:55.218Z,4.17
2018-08-13T03:20:24.449Z,3.93
2018-08-13T03:22:53.692Z,4.58
2018-08-13T03:25:24.621Z,4.33
2018-08-13T03:27:56.534Z,4.63
2018-08-13T03:30:29.397Z,4.30
2018-08-13T03:33:00.474Z,4.27
2018-08-13T03:35:31.378Z,5.30
2018-08-13T03:38:01.399Z,4.90
2018-08-13T03:40:30.733Z,5.33
2018-08-13T03:43:00.011Z,5.50
2018-08-13T03:45:31.794Z,5.13
2018-08-13T03:48:07.887Z,5.37
2018-08-13T03:50:39.232Z,5.00
2018-08-13T03:53:08.569Z,5.30
2018-08-13T03:55:40.025Z,5.17
2018-08-13T03:58:09.425Z,4.97
2018-08-13T04:00:39.564Z,5.27
2018-08-13T04:03:10.754Z,6.07
2018-08-13T04:05:45.546Z,5.73
2018-08-13T04:08:16.714Z,4.53
2018-08-13T04:10:45.968Z,4.60
2018-08-13T04:13:15.256Z,5.03
2018-08-13T04:15:44.510Z,4.90
2018-08-13T04:18:13.830Z,5.10
2018-08-13T04:20:45.845Z,4.90
2018-08-13T04:23:20.351Z,5.23
2018-08-13T04:25:49.915Z,5.30
2018-08-13T04:28:19.249Z,5.47
2018-08-13T04:30:53.040Z,5.10
2018-08-13T04:33:24.211Z,4.93
2018-08-13T04:35:55.800Z,5.57
2018-08-13T04:38:26.950Z,5.33
2018-08-13T04:40:57.922Z,5.03
2018-08-13T04:43:29.840Z,5.43
2018-08-13T04:46:07.412Z,4.57
2018-08-13T04:48:41.320Z,5.10
2018-08-13T04:51:16.982Z,5.17
2018-08-13T04:53:46.241Z,4.95
2018-08-13T04:56:19.089Z,4.73
2018-08-13T04:58:48.646Z,4.83
2018-08-13T05:01:17.934Z,6.20
2018-08-13T05:03:47.489Z,6.75
2018-08-13T05:06:16.756Z,5.30
2018-08-13T05:09:17.137Z,5.60
2018-08-13T05:11:46.940Z,5.67
2018-08-13T05:14:18.682Z,5.53
2018-08-13T05:16:49.640Z,5.83
2018-08-13T05:19:22.640Z,6.07
2018-08-13T05:21:53.864Z,5.80
2018-08-13T05:24:23.879Z,6.00
2018-08-13T05:26:55.745Z,6.23
2018-08-13T05:29:28.578Z,6.20
2018-08-13T05:31:57.890Z,6.17
2018-08-13T05:34:27.139Z,5.90
2018-08-13T05:36:56.544Z,6.87
2018-08-13T05:39:25.807Z,6.30
2018-08-13T05:41:55.068Z,6.90
2018-08-13T05:44:25.141Z,6.83
2018-08-13T05:46:54.413Z,6.37
2018-08-13T05:49:23.711Z,6.65
2018-08-13T05:51:52.924Z,7.50
2018-08-13T05:54:25.091Z,6.20
2018-08-13T05:56:56.797Z,6.25
2018-08-13T05:59:28.503Z,6.60
2018-08-13T06:01:57.764Z,6.27
2018-08-13T06:04:27.001Z,6.87
2018-08-13T06:06:56.241Z,6.05
2018-08-13T06:09:28.085Z,6.45
2018-08-13T06:11:59.461Z,6.67
2018-08-13T06:14:28.695Z,5.60
2018-08-13T06:16:57.979Z,6.07
2018-08-13T06:19:27.805Z,7.27
2018-08-13T06:21:57.069Z,5.33
2018-08-13T06:24:28.037Z,6.00
2018-08-13T06:26:57.363Z,6.70
2018-08-13T06:29:26.601Z,6.03
2018-08-13T06:31:58.539Z,6.05
2018-08-13T06:34:31.497Z,6.08
2018-08-13T06:37:00.771Z,5.77
2018-08-13T06:39:30.025Z,5.73
2018-08-13T06:41:59.295Z,4.47
2018-08-13T06:44:31.192Z,4.67
2018-08-13T06:47:05.895Z,5.03
2018-08-13T06:49:37.077Z,4.87
2018-08-13T06:52:06.442Z,5.07
2018-08-13T06:54:35.689Z,4.57
2018-08-13T06:57:05.545Z,5.20
2018-08-13T06:59:37.483Z,4.83
2018-08-13T07:02:12.134Z,5.35
2018-08-13T07:04:41.327Z,4.67
2018-08-13T07:07:12.935Z,4.50
2018-08-13T07:09:42.241Z,5.27
2018-08-13T07:12:11.485Z,4.80
2018-08-13T07:14:40.793Z,4.87
2018-08-13T07:17:11.966Z,5.00
2018-08-13T07:19:43.807Z,4.53
2018-08-13T07:22:15.138Z,5.27
2018-08-13T07:24:47.045Z,4.37
2018-08-13T07:27:16.303Z,4.55
2018-08-13T07:29:46.339Z,4.67
2018-08-13T07:32:17.321Z,5.13
2018-08-13T07:34:50.747Z,5.10
2018-08-13T07:37:20.093Z,4.80
2018-08-13T07:39:49.690Z,4.80
2018-08-13T07:42:19.011Z,4.60
2018-08-13T07:44:48.614Z,4.90
2018-08-13T07:47:17.889Z,4.30
2018-08-13T07:49:50.155Z,5.27
2018-08-13T07:52:19.378Z,5.23
2018-08-13T07:54:49.209Z,4.12
2018-08-13T07:57:21.165Z,4.62
2018-08-13T07:59:50.848Z,4.60
2018-08-13T08:02:20.214Z,4.67
2018-08-13T08:04:49.753Z,4.60
2018-08-13T08:07:21.507Z,3.73
2018-08-13T08:09:51.734Z,4.75
2018-08-13T08:12:21.005Z,4.03
2018-08-13T08:14:50.837Z,3.77
2018-08-13T08:17:20.874Z,4.33
2018-08-13T08:19:50.498Z,3.93
2018-08-13T08:22:20.611Z,4.30
2018-08-13T08:24:56.202Z,3.90
2018-08-13T08:27:27.182Z,4.13
2018-08-13T08:29:58.164Z,4.15
2018-08-13T08:32:31.933Z,4.30
2018-08-13T08:35:01.187Z,4.47
2018-08-13T08:37:30.588Z,4.40
2018-08-13T08:40:05.495Z,3.90
2018-08-13T08:42:36.904Z,3.80
2018-08-13T08:45:09.605Z,4.30
2018-08-13T09:13:49.016Z,3.30
2018-08-13T09:16:18.230Z,3.47
2018-08-13T09:18:58.516Z,3.30
2018-08-13T09:21:33.376Z,3.20
2018-08-13T09:24:15.243Z,3.10
2018-08-13T09:26:56.239Z,3.30
2018-08-13T09:29:36.498Z,3.00
2018-08-13T09:32:33.166Z,3.47
2018-08-13T09:35:24.864Z,2.77
2018-08-13T09:37:59.142Z,3.23
2018-08-13T09:40:29.393Z,3.37
2018-08-13T09:43:00.025Z,3.03
2018-08-13T09:45:29.172Z,3.00
2018-08-13T09:47:59.509Z,2.60
2018-08-13T09:50:29.232Z,2.60
2018-08-13T09:52:59.072Z,2.10
2018-08-13T09:55:28.875Z,2.67
2018-08-13T09:57:58.639Z,2.63
2018-08-13T10:00:33.262Z,2.30
2018-08-13T10:03:02.435Z,2.07
2018-08-13T10:05:32.097Z,2.00
2018-08-13T10:08:02.511Z,2.20
2018-08-13T10:10:31.711Z,2.67
2018-08-13T10:13:00.917Z,2.30
2018-08-13T10:15:30.708Z,2.70
2018-08-13T10:18:02.578Z,2.70
2018-08-13T10:20:31.780Z,2.20
2018-08-13T10:23:05.015Z,2.37
2018-08-13T10:25:35.062Z,2.40
2018-08-13T10:28:05.031Z,2.70
2018-08-13T10:30:35.560Z,2.67
2018-08-13T10:33:04.752Z,2.57
2018-08-13T10:35:34.460Z,2.83
2018-08-13T10:38:04.366Z,2.70
2018-08-13T10:40:33.560Z,2.70
2018-08-13T10:43:05.123Z,2.77
2018-08-13T10:45:35.141Z,2.83
2018-08-13T10:48:04.594Z,2.70
2018-08-13T10:50:37.035Z,3.17
2018-08-13T10:53:06.851Z,2.30
2018-08-13T10:55:36.705Z,2.00
2018-08-13T10:58:08.758Z,2.80
2018-08-13T11:00:38.099Z,2.37
2018-08-13T11:03:09.493Z,2.80
2018-08-13T11:05:39.523Z,2.90
2018-08-13T11:08:08.704Z,2.37
2018-08-13T11:10:37.919Z,2.70
2018-08-13T11:13:07.427Z,3.10
2018-08-13T11:15:37.649Z,2.37
2018-08-13T11:18:06.918Z,2.40
2018-08-13T11:20:36.699Z,2.53
2018-08-13T11:23:06.705Z,2.43
2018-08-13T11:25:35.932Z,2.87
2018-08-13T11:28:05.553Z,2.53
2018-08-13T11:30:34.719Z,2.80
2018-08-13T11:33:03.900Z,2.70
2018-08-13T11:35:33.057Z,2.40
2018-08-13T11:38:02.798Z,2.30
2018-08-13T11:40:33.464Z,2.27
2018-08-13T11:43:03.001Z,2.53
2018-08-13T11:45:32.859Z,3.00
2018-08-13T11:48:02.043Z,3.00
2018-08-13T11:50:32.162Z,2.90
2018-08-13T11:53:03.575Z,2.60
2018-08-13T11:55:32.774Z,3.00
2018-08-13T11:58:02.725Z,3.00
2018-08-13T12:00:34.511Z,2.70
2018-08-13T12:03:04.113Z,2.83
2018-08-13T12:05:35.655Z,3.00
2018-08-13T12:08:04.844Z,2.50
2018-08-13T12:10:34.062Z,2.70
2018-08-13T12:13:03.231Z,2.70
2018-08-13T12:15:34.351Z,3.03
2018-08-13T12:18:03.512Z,2.40
2018-08-13T12:20:34.816Z,2.63
2018-08-13T12:23:04.114Z,2.73
2018-08-13T12:25:35.544Z,2.50
2018-08-13T12:28:07.247Z,2.80
2018-08-13T12:30:38.397Z,2.60
2018-08-13T12:33:07.573Z,2.80
2018-08-13T12:35:37.336Z,2.67
2018-08-13T12:38:07.938Z,2.53
2018-08-13T12:40:37.870Z,2.60
2018-08-13T12:43:10.793Z,2.67
2018-08-13T12:45:40.868Z,2.60
2018-08-13T12:48:10.264Z,2.60
2018-08-13T12:50:39.362Z,2.47
2018-08-13T12:53:08.544Z,2.80
2018-08-13T12:55:39.034Z,2.80
2018-08-13T12:58:08.798Z,2.67
2018-08-13T13:00:39.839Z,2.60
2018-08-13T13:03:08.993Z,2.87
2018-08-13T13:05:38.151Z,2.70
2018-08-13T13:08:07.999Z,3.00
2018-08-13T13:10:37.191Z,2.70
2018-08-13T13:13:10.610Z,2.80
2018-08-13T13:15:39.788Z,2.60
2018-08-13T13:18:10.470Z,2.80
2018-08-13T13:20:40.213Z,2.63
2018-08-13T13:23:09.372Z,2.83
2018-08-13T13:25:40.537Z,2.63
2018-08-13T13:28:09.737Z,2.20
2018-08-13T13:30:40.250Z,2.47
2018-08-13T13:33:10.119Z,2.90
2018-08-13T13:35:40.375Z,2.63
2018-08-13T13:38:09.564Z,2.73
2018-08-13T13:40:39.016Z,2.50
2018-08-13T13:43:10.821Z,2.53
2018-08-13T13:45:40.033Z,2.27
2018-08-13T13:48:09.212Z,2.57
2018-08-13T13:50:41.158Z,2.57
2018-08-13T13:53:11.501Z,2.80
2018-08-13T13:55:40.737Z,2.30
2018-08-13T13:58:09.900Z,2.53
2018-08-13T14:00:39.122Z,2.63
2018-08-13T14:03:09.326Z,2.57
2018-08-13T14:05:38.579Z,2.50
2018-08-13T14:08:08.461Z,2.90
2018-08-13T14:10:37.660Z,2.03
2018-08-13T14:13:07.532Z,2.47
2018-08-13T14:15:38.745Z,2.17
2018-08-13T14:18:08.834Z,2.20
2018-08-13T14:20:39.562Z,2.40
2018-08-13T14:23:10.463Z,2.27
2018-08-13T14:25:40.133Z,1.93
2018-08-13T14:28:09.364Z,2.13
2018-08-13T14:30:40.217Z,2.40
2018-08-13T14:33:14.050Z,2.23
2018-08-13T14:35:44.257Z,2.70
2018-08-13T14:38:14.418Z,2.23
2018-08-13T14:40:43.669Z,2.23
2018-08-13T14:43:12.884Z,2.30
2018-08-13T14:45:43.052Z,2.23
2018-08-13T14:48:12.212Z,2.27
2018-08-13T14:50:41.428Z,2.47
2018-08-13T14:53:12.664Z,2.47
2018-08-13T14:55:41.999Z,2.30
2018-08-13T14:58:14.423Z,2.13
2018-08-13T15:00:45.479Z,2.27
2018-08-13T15:03:17.026Z,2.30
2018-08-13T15:05:48.844Z,2.50
2018-08-13T15:08:19.681Z,2.20
2018-08-13T15:10:49.282Z,2.10
2018-08-13T15:13:18.555Z,2.30
2018-08-13T15:15:47.801Z,2.07
2018-08-13T15:18:19.792Z,2.03
2018-08-13T15:20:49.175Z,2.13
2018-08-13T15:23:19.290Z,2.20
2018-08-13T15:25:48.478Z,2.30
2018-08-13T15:28:18.927Z,2.13
2018-08-13T15:30:49.075Z,3.37
2018-08-13T15:33:18.289Z,3.30
2018-08-13T15:35:47.578Z,3.53
2018-08-13T15:38:16.792Z,3.90
2018-08-13T15:40:47.072Z,3.53
2018-08-13T15:43:16.417Z,4.00
2018-08-13T15:45:48.855Z,4.20
2018-08-13T15:48:18.099Z,3.90
2018-08-13T15:50:47.585Z,3.93
2018-08-13T15:53:17.659Z,3.70
2018-08-13T15:55:47.669Z,3.47
2018-08-13T15:58:18.000Z,3.60
2018-08-13T16:00:47.871Z,3.20
2018-08-13T16:03:18.213Z,3.23
2018-08-13T16:05:50.256Z,3.30
2018-08-13T16:08:19.961Z,3.60
2018-08-13T16:10:49.462Z,3.70
2018-08-13T16:13:20.297Z,3.20
2018-08-13T16:15:49.893Z,3.17
2018-08-13T16:18:20.172Z,3.40
2018-08-13T16:20:49.741Z,3.73
2018-08-13T16:23:18.890Z,3.70
2018-08-13T16:25:48.266Z,3.47
2018-08-13T16:28:18.182Z,3.57
2018-08-13T16:30:48.527Z,4.10
2018-08-13T16:33:18.625Z,4.20
2018-08-13T16:35:51.576Z,3.60
2018-08-13T16:38:21.430Z,4.27
2018-08-13T16:40:50.749Z,3.87
2018-08-13T16:43:21.293Z,3.70
2018-08-13T16:45:51.371Z,4.20
2018-08-13T16:48:21.595Z,3.97
2018-08-13T16:50:51.129Z,3.90
2018-08-13T16:53:20.522Z,3.93
2018-08-13T16:55:51.077Z,4.03
2018-08-13T16:58:21.231Z,3.90
2018-08-13T17:00:50.549Z,3.97
2018-08-13T17:03:23.051Z,4.97
2018-08-13T17:05:52.498Z,3.93
2018-08-13T17:08:22.672Z,4.10
2018-08-13T17:10:54.819Z,3.97
2018-08-13T17:13:24.485Z,3.90
2018-08-13T17:15:56.591Z,3.80
2018-08-13T17:18:26.143Z,4.53
2018-08-13T17:20:57.925Z,4.17
2018-08-13T17:23:27.960Z,3.90
2018-08-13T17:26:00.187Z,4.40
2018-08-13T17:28:29.688Z,4.00
2018-08-13T17:30:59.044Z,4.47
2018-08-13T17:33:28.600Z,3.67
2018-08-13T17:35:59.449Z,4.23
2018-08-13T17:38:32.324Z,3.67
2018-08-13T17:41:02.165Z,3.73
2018-08-13T17:43:32.770Z,4.00
2018-08-13T17:46:03.206Z,3.83
2018-08-13T17:48:35.059Z,3.80
2018-08-13T17:51:04.946Z,4.00
2018-08-13T17:53:34.214Z,3.60
2018-08-13T17:56:04.618Z,4.27
2018-08-13T17:58:33.900Z,4.20
2018-08-13T18:01:03.847Z,4.00
2018-08-13T18:03:34.593Z,3.57
2018-08-13T18:06:04.550Z,4.07
2018-08-13T18:08:34.604Z,4.40
2018-08-13T18:11:03.912Z,4.17
2018-08-13T18:13:33.611Z,4.00
2018-08-13T18:16:06.450Z,3.83
2018-08-13T18:18:36.337Z,3.80
2018-08-13T18:21:06.276Z,4.37
2018-08-13T18:23:36.110Z,4.53
2018-08-13T18:26:05.296Z,4.20
2018-08-13T18:28:34.575Z,4.50
2018-08-13T18:31:04.812Z,4.53
2018-08-13T18:33:34.832Z,4.80
2018-08-13T18:36:05.163Z,4.40
2018-08-13T18:38:34.935Z,4.90
2018-08-13T18:41:04.421Z,4.00
2018-08-13T18:43:33.759Z,4.87
2018-08-13T18:46:03.010Z,4.20
2018-08-13T18:48:32.253Z,3.80
2018-08-13T18:51:01.475Z,4.53
2018-08-13T18:53:30.867Z,4.50
2018-08-13T18:56:00.135Z,4.50
2018-08-13T18:58:29.423Z,4.40
2018-08-13T19:00:58.720Z,4.63
2018-08-13T19:03:28.533Z,5.07
2018-08-13T19:05:57.939Z,4.40
2018-08-13T19:08:27.211Z,4.70
2018-08-13T19:10:56.590Z,5.40
2018-08-13T19:13:26.246Z,5.33
2018-08-13T19:15:55.543Z,5.40
2018-08-13T19:18:24.940Z,5.27
2018-08-13T19:20:54.241Z,5.90
2018-08-13T19:23:23.538Z,5.77
2018-08-13T19:25:52.852Z,6.33
2018-08-13T19:28:22.380Z,7.30
2018-08-13T19:30:51.656Z,6.57
2018-08-13T19:33:20.962Z,7.07
2018-08-13T19:35:50.286Z,7.40
2018-08-13T19:38:20.472Z,8.23
2018-08-13T19:40:49.892Z,8.40
2018-08-13T19:43:19.363Z,8.70
2018-08-13T19:45:48.579Z,9.50
2018-08-13T19:48:17.891Z,8.80
2018-08-13T19:50:47.151Z,8.47
2018-08-13T19:53:16.399Z,9.00
2018-08-13T19:55:45.718Z,9.20
2018-08-13T19:58:15.329Z,10.27
2018-08-13T20:00:44.635Z,9.00
2018-08-13T20:03:14.325Z,8.67
2018-08-13T20:05:43.658Z,8.70
2018-08-13T20:08:12.882Z,9.20
2018-08-13T20:10:42.189Z,9.20
2018-08-13T20:13:11.398Z,9.70
2018-08-13T20:15:40.634Z,10.07
2018-08-13T20:18:09.896Z,9.53
2018-08-13T20:20:39.148Z,9.30
2018-08-13T20:23:08.637Z,9.77
2018-08-13T20:25:38.127Z,9.33
2018-08-13T20:28:08.379Z,9.10
2018-08-13T20:30:37.685Z,9.40
2018-08-13T20:33:07.020Z,9.50
2018-08-13T20:35:36.542Z,10.47
2018-08-13T20:38:06.155Z,10.03
2018-08-13T20:40:35.600Z,10.80
2018-08-13T20:43:04.824Z,11.60
2018-08-13T20:45:34.041Z,10.77
2018-08-13T20:48:03.198Z,11.10
2018-08-13T20:50:32.492Z,10.87
2018-08-13T20:53:01.748Z,10.73
2018-08-13T20:55:30.982Z,10.80
2018-08-13T20:58:00.473Z,11.20
2018-08-13T21:00:30.982Z,11.80
2018-08-13T21:03:00.233Z,10.70
2018-08-13T21:05:29.426Z,11.90
2018-08-13T21:07:58.626Z,11.63
2018-08-13T21:10:27.846Z,12.03
2018-08-13T21:12:57.238Z,12.00
2018-08-13T21:15:26.568Z,10.90
2018-08-13T21:17:55.825Z,12.87
2018-08-13T21:20:26.844Z,12.13
2018-08-13T21:22:56.873Z,12.43
2018-08-13T21:25:26.183Z,12.57
2018-08-13T21:27:55.537Z,11.50
2018-08-13T21:30:24.712Z,11.80
2018-08-13T21:32:54.093Z,12.20
2018-08-13T21:35:24.605Z,11.87
2018-08-13T21:37:53.936Z,13.00
2018-08-13T21:40:23.147Z,13.60
2018-08-13T21:42:52.431Z,11.57
2018-08-13T21:45:21.576Z,12.10
2018-08-13T21:47:50.772Z,11.77
2018-08-13T21:50:21.454Z,11.50
2018-08-13T21:52:51.325Z,11.93
2018-08-13T21:55:20.904Z,11.40
2018-08-13T21:57:50.119Z,10.80
2018-08-13T22:00:27.304Z,11.73
2018-08-13T22:02:57.825Z,11.63
2018-08-13T22:05:27.069Z,11.00
2018-08-13T22:07:56.266Z,10.70
2018-08-13T22:10:26.335Z,10.77
2018-08-13T22:12:55.763Z,10.63
2018-08-13T22:15:28.037Z,11.67
2018-08-13T22:17:58.974Z,10.40
2018-08-13T22:20:28.967Z,10.60
2018-08-13T22:22:59.333Z,10.70
2018-08-13T22:25:31.195Z,11.30
2018-08-13T22:28:00.630Z,10.90
2018-08-13T22:30:31.219Z,11.10
2018-08-13T22:33:00.430Z,8.97
2018-08-13T22:35:30.017Z,8.57
2018-08-13T22:37:59.191Z,9.63
2018-08-13T22:40:28.382Z,8.90
2018-08-13T22:42:57.597Z,8.80
2018-08-13T22:45:26.873Z,8.73
2018-08-13T22:47:56.074Z,9.00
2018-08-13T22:50:25.326Z,9.00
2018-08-13T22:52:54.485Z,9.27
2018-08-13T22:55:23.727Z,9.17
2018-08-13T22:57:53.021Z,8.97
2018-08-13T23:00:22.378Z,8.80
2018-08-13T23:02:51.895Z,8.30
2018-08-13T23:05:23.555Z,8.47
2018-08-13T23:07:52.812Z,9.17
2018-08-13T23:10:23.130Z,9.23
2018-08-13T23:12:55.599Z,8.73
2018-08-13T23:15:24.941Z,9.07
2018-08-13T23:17:55.349Z,8.20
2018-08-13T23:20:28.227Z,8.90
2018-08-13T23:23:01.663Z,8.67
2018-08-13T23:25:32.376Z,8.50
2018-08-13T23:28:03.163Z,8.23
2018-08-13T23:30:32.391Z,7.77
2018-08-13T23:33:02.039Z,8.77
2018-08-13T23:35:32.622Z,7.97
2018-08-13T23:38:01.786Z,8.33
2018-08-13T23:40:31.960Z,7.63
2018-08-13T23:43:01.211Z,7.27
2018-08-13T23:45:32.321Z,7.60
2018-08-13T23:48:01.588Z,7.20
2018-08-13T23:50:30.756Z,7.30
2018-08-13T23:53:00.979Z,7.23
2018-08-13T23:55:34.474Z,7.97
2018-08-13T23:58:05.076Z,7.20
